EG-0004 weather

Bir Hasanah
North Sinai Governorate, Egypt

Public forecast

Using degrees Celsius for public forecast. Weather courtesy of forecast.io.

Closest aviation weather report (METAR) to Bir Hasanah

Report is more than 6 hours old.

Closest report is El Arish International Airport, 57.1 nm (105.8 km) NNE. Retrieved 2019/09/02 14:00 UTC (2 months ago):

HEAR 021400Z NI

Closest aviation forecast (TAF) to Bir Hasanah

Closest forecast is El Arish International Airport, 57.1 nm (105.8 km) NNE. Retrieved 2019/10/21 18:55 UTC (26 minutes ago):

TAF HEAR 211700Z 2118/2224 34008KT 9999 SCT025 TEMPO 2118/2203 4000 RA BKN030 PROB30 TEMPO 2120/2122 TSSHRA FEW017CB